createdAt,value
2022-10-22T00:00:58.459Z,10.70
2022-10-22T00:03:05.207Z,10.25
2022-10-22T00:05:13.183Z,9.93
2022-10-22T00:07:20.516Z,10.25
2022-10-22T00:09:27.499Z,10.75
2022-10-22T00:11:34.422Z,10.95
2022-10-22T00:13:43.664Z,10.82
2022-10-22T00:15:50.576Z,10.93
2022-10-22T00:17:57.706Z,11.52
2022-10-22T00:20:04.480Z,11.50
2022-10-22T00:22:12.377Z,10.93
2022-10-22T00:24:19.198Z,11.02
2022-10-22T00:26:26.547Z,11.02
2022-10-22T00:28:34.024Z,10.90
2022-10-22T00:30:42.956Z,11.90
2022-10-22T00:32:49.924Z,11.27
2022-10-22T00:34:56.910Z,11.10
2022-10-22T00:37:03.724Z,11.40
2022-10-22T00:39:10.597Z,11.07
2022-10-22T00:41:17.933Z,11.57
2022-10-22T00:43:26.087Z,10.98
2022-10-22T00:45:33.250Z,11.10
2022-10-22T00:47:44.851Z,10.23
2022-10-22T00:49:52.904Z,10.25
2022-10-22T00:51:59.727Z,10.88
2022-10-22T00:54:10.085Z,10.57
2022-10-22T00:56:17.164Z,11.75
2022-10-22T00:58:26.650Z,12.52
2022-10-22T01:00:33.958Z,11.60
2022-10-22T01:02:42.753Z,11.18
2022-10-22T01:04:50.142Z,11.38
2022-10-22T01:06:57.269Z,11.10
2022-10-22T01:09:19.503Z,11.15
2022-10-22T01:11:30.382Z,12.55
2022-10-22T01:13:45.130Z,11.77
2022-10-22T01:15:59.588Z,10.23
2022-10-22T01:18:12.192Z,10.00
2022-10-22T01:20:30.691Z,9.73
2022-10-22T01:22:42.285Z,8.55
2022-10-22T01:24:59.338Z,8.48
2022-10-22T01:27:27.510Z,8.88
2022-10-22T01:29:40.631Z,8.48
2022-10-22T01:31:50.837Z,7.35
2022-10-22T01:33:58.838Z,5.63
2022-10-22T01:36:07.557Z,4.90
2022-10-22T01:38:18.218Z,4.70
2022-10-22T01:40:26.371Z,4.60
2022-10-22T01:42:33.708Z,4.30
2022-10-22T01:44:42.633Z,4.78
2022-10-22T01:46:51.961Z,4.85
2022-10-22T01:49:13.787Z,4.53
2022-10-22T01:51:44.160Z,5.28
2022-10-22T01:53:57.131Z,4.75
2022-10-22T01:56:20.387Z,4.50
2022-10-22T01:58:38.116Z,4.60
2022-10-22T02:00:53.630Z,4.80
2022-10-22T02:03:06.202Z,4.90
2022-10-22T02:05:17.426Z,3.55
2022-10-22T02:07:29.884Z,3.15
2022-10-22T02:09:37.728Z,2.78
2022-10-22T02:11:46.090Z,2.97
2022-10-22T02:13:56.392Z,2.65
2022-10-22T02:16:06.562Z,2.65
2022-10-22T02:18:14.812Z,2.20
2022-10-22T02:20:25.977Z,2.33
2022-10-22T02:22:33.369Z,2.20
2022-10-22T02:24:40.810Z,2.10
2022-10-22T02:26:54.383Z,2.22
2022-10-22T02:29:07.003Z,2.00
2022-10-22T02:31:18.935Z,2.40
2022-10-22T02:33:29.303Z,2.20
2022-10-22T02:35:36.935Z,2.35
2022-10-22T02:37:44.936Z,1.73
2022-10-22T02:39:52.797Z,2.22
2022-10-22T02:42:00.629Z,2.08
2022-10-22T02:44:12.468Z,2.58
2022-10-22T02:46:21.392Z,2.03
2022-10-22T02:48:28.163Z,2.17
2022-10-22T02:50:34.935Z,2.25
2022-10-22T02:52:42.365Z,2.30
2022-10-22T02:54:49.400Z,2.38
2022-10-22T02:56:56.273Z,2.30
2022-10-22T02:59:03.047Z,2.50
2022-10-22T03:01:12.451Z,2.33
2022-10-22T03:03:24.118Z,1.90
2022-10-22T03:05:31.298Z,2.42
2022-10-22T03:07:38.246Z,2.20
2022-10-22T03:09:45.518Z,2.50
2022-10-22T03:11:52.292Z,2.50
2022-10-22T03:13:59.167Z,2.30
2022-10-22T03:16:06.340Z,1.98
2022-10-22T03:18:13.059Z,2.50
2022-10-22T03:20:22.029Z,2.38
2022-10-22T03:22:32.132Z,2.08
2022-10-22T03:24:41.956Z,2.00
2022-10-22T03:26:50.333Z,1.70
2022-10-22T03:28:58.180Z,1.75
2022-10-22T03:31:04.955Z,2.00
2022-10-22T03:33:11.725Z,2.10
2022-10-22T03:35:18.754Z,1.70
2022-10-22T03:37:28.240Z,1.80
2022-10-22T03:39:37.623Z,2.22
2022-10-22T03:41:45.520Z,1.73
2022-10-22T03:43:54.154Z,2.10
2022-10-22T03:45:59.791Z,1.88
2022-10-22T03:48:06.604Z,2.10
2022-10-22T03:50:14.298Z,2.10
2022-10-22T03:52:21.741Z,2.10
2022-10-22T03:54:30.645Z,2.00
2022-10-22T03:56:37.534Z,2.00
2022-10-22T03:58:45.227Z,1.92
2022-10-22T04:00:52.159Z,2.00
2022-10-22T04:02:58.977Z,2.00
2022-10-22T04:05:05.816Z,2.35
2022-10-22T04:07:12.826Z,1.92
2022-10-22T04:09:19.939Z,1.92
2022-10-22T04:11:28.418Z,1.80
2022-10-22T04:13:35.600Z,2.20
2022-10-22T04:15:42.448Z,2.63
2022-10-22T04:17:49.400Z,2.95
2022-10-22T04:19:56.172Z,2.35
2022-10-22T04:22:03.199Z,2.53
2022-10-22T04:24:10.639Z,3.17
2022-10-22T04:26:18.280Z,2.35
2022-10-22T04:28:27.057Z,2.40
2022-10-22T04:30:33.878Z,2.00
2022-10-22T04:32:41.053Z,2.40
2022-10-22T04:34:47.878Z,2.10
2022-10-22T04:36:54.752Z,2.80
2022-10-22T04:39:03.427Z,2.63
2022-10-22T04:41:15.158Z,2.80
2022-10-22T04:45:29.778Z,2.67
2022-10-22T04:47:36.658Z,2.50
2022-10-22T04:49:44.498Z,2.75
2022-10-22T04:51:51.375Z,2.60
2022-10-22T04:53:58.607Z,3.10
2022-10-22T04:56:17.719Z,2.83
2022-10-22T04:58:25.922Z,3.05
2022-10-22T05:00:34.590Z,2.80
2022-10-22T05:02:41.821Z,2.60
2022-10-22T05:04:48.749Z,2.90
2022-10-22T05:06:56.547Z,2.72
2022-10-22T05:09:05.914Z,2.53
2022-10-22T05:11:16.991Z,2.53
2022-10-22T05:13:23.874Z,2.40
2022-10-22T05:15:31.120Z,2.22
2022-10-22T05:17:41.950Z,2.45
2022-10-22T05:19:49.157Z,3.08
2022-10-22T05:21:57.309Z,2.90
2022-10-22T05:24:05.107Z,2.70
2022-10-22T05:26:13.517Z,2.53
2022-10-22T05:28:20.802Z,2.80
2022-10-22T05:30:27.674Z,2.38
2022-10-22T05:32:34.807Z,2.30
2022-10-22T05:34:43.371Z,3.28
2022-10-22T05:36:50.608Z,3.08
2022-10-22T05:38:57.834Z,3.60
2022-10-22T05:41:05.889Z,3.20
2022-10-22T05:43:12.815Z,3.00
2022-10-22T05:45:19.894Z,2.80
2022-10-22T05:47:26.872Z,2.72
2022-10-22T05:49:33.800Z,2.70
2022-10-22T05:51:42.464Z,2.95
2022-10-22T05:53:49.409Z,2.97
2022-10-22T05:55:56.210Z,2.70
2022-10-22T05:58:03.118Z,2.70
2022-10-22T06:00:12.901Z,3.20
2022-10-22T06:02:25.031Z,3.70
2022-10-22T06:04:31.851Z,3.20
2022-10-22T06:06:42.737Z,3.25
2022-10-22T06:08:50.224Z,2.85
2022-10-22T06:10:57.814Z,2.70
2022-10-22T06:13:09.384Z,3.10
2022-10-22T06:17:23.441Z,3.10
2022-10-22T06:19:32.207Z,3.25
2022-10-22T06:21:40.835Z,2.97
2022-10-22T06:23:47.899Z,3.00
2022-10-22T06:26:00.921Z,2.63
2022-10-22T06:28:09.176Z,3.00
2022-10-22T06:30:16.565Z,3.38
2022-10-22T06:32:23.499Z,3.10
2022-10-22T06:34:30.520Z,3.25
2022-10-22T06:36:37.908Z,3.70
2022-10-22T06:38:46.977Z,3.15
2022-10-22T06:40:54.008Z,3.40
2022-10-22T06:43:02.406Z,3.90
2022-10-22T06:45:10.980Z,4.30
2022-10-22T06:47:17.892Z,4.35
2022-10-22T06:49:24.895Z,4.60
2022-10-22T06:51:31.982Z,4.15
2022-10-22T06:53:39.439Z,4.45
2022-10-22T06:55:48.015Z,4.47
2022-10-22T06:57:54.786Z,3.97
2022-10-22T07:00:01.623Z,4.30
2022-10-22T07:02:08.804Z,4.20
2022-10-22T07:04:18.586Z,4.55
2022-10-22T07:06:27.116Z,4.55
2022-10-22T07:08:34.201Z,4.38
2022-10-22T07:10:41.869Z,4.63
2022-10-22T07:12:50.333Z,4.78
2022-10-22T07:14:57.154Z,5.18
2022-10-22T07:17:03.929Z,5.13
2022-10-22T07:19:11.109Z,4.95
2022-10-22T07:21:19.552Z,5.07
2022-10-22T07:23:26.354Z,4.85
2022-10-22T07:25:33.166Z,5.25
2022-10-22T07:27:40.362Z,5.20
2022-10-22T07:29:49.281Z,4.55
2022-10-22T07:31:56.156Z,8.10
2022-10-22T07:34:03.032Z,5.22
2022-10-22T07:36:11.788Z,4.82
2022-10-22T07:38:18.610Z,5.15
2022-10-22T07:40:25.434Z,5.43
2022-10-22T07:42:32.630Z,5.20
2022-10-22T07:44:39.388Z,4.85
2022-10-22T07:46:48.982Z,5.15
2022-10-22T07:48:56.628Z,5.30
2022-10-22T07:51:04.161Z,5.45
2022-10-22T07:53:11.339Z,5.13
2022-10-22T07:55:18.725Z,4.82
2022-10-22T07:57:25.448Z,5.05
2022-10-22T07:59:32.526Z,5.30
2022-10-22T08:01:39.387Z,5.10
2022-10-22T08:03:48.491Z,5.07
2022-10-22T08:05:56.611Z,4.72
2022-10-22T08:08:03.824Z,4.65
2022-10-22T08:10:13.350Z,5.43
2022-10-22T08:12:20.124Z,5.13
2022-10-22T08:14:26.945Z,5.53
2022-10-22T08:16:33.727Z,5.20
2022-10-22T08:18:41.102Z,5.72
2022-10-22T08:20:49.823Z,5.60
2022-10-22T08:22:56.747Z,5.45
2022-10-22T08:25:03.578Z,6.32
2022-10-22T08:27:10.598Z,5.13
2022-10-22T08:29:17.931Z,5.70
2022-10-22T08:31:24.980Z,5.20
2022-10-22T08:33:31.834Z,5.40
2022-10-22T08:35:38.812Z,5.25
2022-10-22T08:37:47.325Z,5.70
2022-10-22T08:39:54.558Z,5.68
2022-10-22T08:42:12.388Z,5.53
2022-10-22T08:44:46.707Z,5.72
2022-10-22T08:47:08.334Z,5.78
2022-10-22T08:49:22.127Z,5.45
2022-10-22T08:51:31.446Z,6.30
2022-10-22T08:53:48.661Z,6.45
2022-10-22T08:55:57.537Z,6.25
2022-10-22T08:58:17.003Z,5.75
2022-10-22T09:00:27.722Z,6.05
2022-10-22T09:02:44.062Z,6.40
2022-10-22T09:05:00.522Z,6.07
2022-10-22T09:07:07.389Z,6.40
2022-10-22T09:09:18.897Z,6.10
2022-10-22T09:11:31.837Z,6.47
2022-10-22T09:13:38.659Z,6.60
2022-10-22T09:15:47.311Z,6.40
2022-10-22T09:18:02.856Z,6.82
2022-10-22T09:20:18.704Z,7.43
2022-10-22T09:24:48.671Z,7.22
2022-10-22T09:26:55.450Z,7.45
2022-10-22T09:29:04.023Z,7.65
2022-10-22T09:31:15.026Z,7.72
2022-10-22T09:33:27.753Z,7.75
2022-10-22T09:35:38.249Z,8.40
2022-10-22T09:37:52.906Z,9.02
2022-10-22T09:40:06.587Z,8.23
2022-10-22T09:42:15.063Z,7.47
2022-10-22T09:44:23.061Z,8.15
2022-10-22T09:46:32.844Z,8.45
2022-10-22T09:48:41.203Z,7.95
2022-10-22T09:50:49.615Z,7.95
2022-10-22T09:53:03.369Z,7.38
2022-10-22T09:55:17.952Z,7.60
2022-10-22T09:57:28.568Z,8.13
2022-10-22T09:59:37.089Z,8.00
2022-10-22T10:01:44.208Z,8.13
2022-10-22T10:03:52.467Z,8.32
2022-10-22T10:06:05.032Z,8.13
2022-10-22T10:08:18.098Z,7.80
2022-10-22T10:10:36.746Z,8.35
2022-10-22T10:12:53.605Z,7.95
2022-10-22T10:15:06.722Z,7.70
2022-10-22T10:17:26.246Z,7.80
2022-10-22T10:19:49.813Z,8.13
2022-10-22T10:22:06.517Z,7.82
2022-10-22T10:24:24.092Z,8.00
2022-10-22T10:26:38.911Z,8.10
2022-10-22T10:28:55.560Z,7.93
2022-10-22T10:31:09.913Z,8.05
2022-10-22T10:33:30.917Z,8.43
2022-10-22T10:35:48.495Z,8.38
2022-10-22T10:38:07.084Z,8.70
2022-10-22T10:40:27.269Z,9.45
2022-10-22T10:42:41.322Z,9.18
2022-10-22T10:44:57.456Z,9.80
2022-10-22T10:47:15.746Z,9.32
2022-10-22T10:49:26.974Z,9.90
2022-10-22T10:51:45.531Z,10.00
2022-10-22T10:54:07.908Z,9.20
2022-10-22T10:56:35.576Z,10.00
2022-10-22T10:58:52.992Z,10.60
2022-10-22T11:01:03.810Z,10.15
2022-10-22T11:03:31.166Z,12.10
2022-10-22T11:05:44.556Z,11.73
2022-10-22T11:07:58.126Z,11.73
2022-10-22T11:10:10.323Z,11.82
2022-10-22T11:12:23.601Z,11.95
2022-10-22T11:14:36.668Z,11.80
2022-10-22T11:16:48.098Z,11.35
2022-10-22T11:19:03.318Z,10.70
2022-10-22T11:21:21.971Z,11.20
2022-10-22T11:23:36.014Z,11.73
2022-10-22T11:25:47.226Z,11.75
2022-10-22T11:28:03.866Z,12.13
2022-10-22T11:30:18.650Z,12.18
2022-10-22T11:32:27.531Z,11.77
2022-10-22T11:34:41.208Z,11.55
2022-10-22T11:36:52.840Z,11.30
2022-10-22T11:39:00.383Z,12.15
2022-10-22T11:41:10.686Z,12.00
2022-10-22T11:43:31.590Z,12.68
2022-10-22T11:45:42.728Z,13.00
2022-10-22T11:48:00.546Z,13.95
2022-10-22T11:50:26.057Z,13.63
2022-10-22T11:52:44.383Z,13.23
2022-10-22T11:54:51.173Z,14.35
2022-10-22T11:57:21.506Z,16.60
2022-10-22T11:59:43.029Z,16.90
2022-10-22T12:01:58.028Z,18.17
2022-10-22T12:04:25.836Z,18.40
2022-10-22T12:06:52.328Z,20.85
2022-10-22T12:09:05.811Z,23.73
2022-10-22T12:11:20.055Z,21.85
2022-10-22T12:13:29.540Z,21.80
2022-10-22T12:15:36.468Z,19.75
2022-10-22T12:17:46.668Z,20.92
2022-10-22T12:19:59.814Z,20.85
2022-10-22T12:22:18.745Z,21.70
2022-10-22T12:24:27.576Z,22.08
2022-10-22T12:26:36.952Z,20.85
2022-10-22T12:28:44.439Z,20.17
2022-10-22T12:30:51.381Z,21.73
2022-10-22T12:33:01.526Z,20.50
2022-10-22T12:35:09.925Z,20.38
2022-10-22T12:37:17.926Z,19.95
2022-10-22T12:39:28.845Z,19.38
2022-10-22T12:41:39.919Z,19.73
2022-10-22T12:43:47.151Z,19.02
2022-10-22T12:45:55.723Z,19.13
2022-10-22T12:48:06.186Z,19.77
2022-10-22T12:50:22.215Z,18.20
2022-10-22T12:52:32.117Z,19.38
2022-10-22T12:54:39.395Z,18.80
2022-10-22T12:56:47.907Z,18.33
2022-10-22T12:59:00.261Z,18.60
2022-10-22T13:01:07.595Z,16.58
2022-10-22T13:03:29.428Z,17.77
2022-10-22T13:07:47.930Z,17.80
2022-10-22T13:10:02.792Z,17.20
2022-10-22T13:12:11.714Z,17.50
2022-10-22T13:14:24.475Z,17.63
2022-10-22T13:16:32.989Z,17.30
2022-10-22T13:18:41.962Z,16.25
2022-10-22T13:20:56.982Z,17.38
2022-10-22T13:23:05.500Z,16.00
2022-10-22T13:25:27.350Z,16.13
2022-10-22T13:29:44.390Z,16.13
2022-10-22T13:31:52.753Z,17.15
2022-10-22T13:34:06.674Z,17.08
2022-10-22T13:36:20.529Z,16.85
2022-10-22T13:38:29.308Z,16.63
2022-10-22T13:40:36.325Z,15.70
2022-10-22T13:42:43.440Z,15.68
2022-10-22T13:44:51.149Z,17.80
2022-10-22T13:46:58.074Z,15.80
2022-10-22T13:49:07.407Z,16.58
2022-10-22T13:51:18.643Z,17.35
2022-10-22T13:53:28.939Z,17.40
2022-10-22T13:55:35.812Z,17.25
2022-10-22T13:57:42.739Z,18.38
2022-10-22T13:59:49.510Z,16.83
2022-10-22T14:01:58.026Z,17.30
2022-10-22T14:04:07.406Z,16.98
2022-10-22T14:06:17.608Z,16.92
2022-10-22T14:08:26.786Z,16.50
2022-10-22T14:10:34.648Z,17.02
2022-10-22T14:12:41.393Z,16.58
2022-10-22T14:14:48.625Z,17.27
2022-10-22T14:16:55.365Z,17.20
2022-10-22T14:19:03.157Z,16.83
2022-10-22T14:21:11.671Z,18.20
2022-10-22T14:23:22.151Z,17.45
2022-10-22T14:25:32.432Z,17.65
2022-10-22T14:27:39.586Z,17.83
2022-10-22T14:29:47.370Z,17.98
2022-10-22T14:31:54.245Z,18.35
2022-10-22T14:34:01.738Z,17.48
2022-10-22T14:36:08.700Z,17.02
2022-10-22T14:38:17.468Z,18.55
2022-10-22T14:40:24.805Z,18.05
2022-10-22T14:42:33.217Z,18.60
2022-10-22T14:44:40.294Z,17.80
2022-10-22T14:46:47.886Z,18.10
2022-10-22T14:48:54.862Z,18.95
2022-10-22T14:51:01.800Z,19.67
2022-10-22T14:53:08.579Z,19.80
2022-10-22T14:55:18.868Z,18.73
2022-10-22T14:57:25.740Z,19.05
2022-10-22T14:59:33.125Z,19.98
2022-10-22T15:01:40.102Z,19.35
2022-10-22T15:03:50.049Z,18.00
2022-10-22T15:05:57.044Z,20.08
2022-10-22T15:08:04.323Z,18.17
2022-10-22T15:10:12.381Z,19.15
2022-10-22T15:12:21.691Z,19.63
2022-10-22T15:14:28.517Z,19.25
2022-10-22T15:16:35.634Z,19.10
2022-10-22T15:18:43.545Z,19.75
2022-10-22T15:20:59.074Z,20.45
2022-10-22T15:23:05.846Z,19.52
2022-10-22T15:25:13.187Z,18.83
2022-10-22T15:27:22.155Z,18.58
2022-10-22T15:29:28.873Z,20.23
2022-10-22T15:31:50.303Z,19.45
2022-10-22T15:34:01.340Z,20.00
2022-10-22T15:36:15.251Z,20.20
2022-10-22T15:38:22.306Z,20.65
2022-10-22T15:40:29.621Z,19.63
2022-10-22T15:42:38.367Z,19.77
2022-10-22T15:44:45.628Z,19.65
2022-10-22T15:46:53.465Z,19.15
2022-10-22T15:49:00.697Z,19.55
2022-10-22T15:51:12.502Z,19.13
2022-10-22T15:53:19.668Z,19.15
2022-10-22T15:55:26.338Z,19.15
2022-10-22T15:57:33.159Z,20.45
2022-10-22T15:59:41.876Z,20.15
2022-10-22T16:01:49.111Z,20.05
2022-10-22T16:04:01.208Z,20.13
2022-10-22T16:08:14.394Z,19.38
2022-10-22T16:10:21.115Z,20.70
2022-10-22T16:12:28.501Z,19.50
2022-10-22T16:14:35.431Z,20.38
2022-10-22T16:16:47.166Z,19.80
2022-10-22T16:18:54.294Z,20.67
2022-10-22T16:21:01.324Z,20.13
2022-10-22T16:23:08.198Z,20.70
2022-10-22T16:25:15.498Z,20.95
2022-10-22T16:27:22.303Z,21.73
2022-10-22T16:29:29.178Z,20.65
2022-10-22T16:31:35.952Z,20.58
2022-10-22T16:33:49.232Z,21.65
2022-10-22T16:35:56.921Z,22.67
2022-10-22T16:38:03.740Z,21.08
2022-10-22T16:40:11.948Z,21.58
2022-10-22T16:42:18.772Z,21.63
2022-10-22T16:44:25.852Z,22.13
2022-10-22T16:46:34.313Z,22.55
2022-10-22T16:48:44.058Z,22.08
2022-10-22T16:50:50.884Z,22.52
2022-10-22T16:52:58.113Z,22.00
2022-10-22T16:55:04.994Z,22.02
2022-10-22T16:57:13.392Z,23.27
2022-10-22T16:59:20.218Z,22.60
2022-10-22T17:01:30.110Z,21.42
2022-10-22T17:03:37.041Z,21.25
2022-10-22T17:05:45.756Z,22.85
2022-10-22T17:07:52.937Z,22.48
2022-10-22T17:09:59.760Z,22.45
2022-10-22T17:12:07.056Z,22.00
2022-10-22T17:14:14.383Z,22.38
2022-10-22T17:16:25.809Z,23.45
2022-10-22T17:18:32.876Z,21.98
2022-10-22T17:20:43.607Z,22.90
2022-10-22T17:22:52.117Z,23.10
2022-10-22T17:25:14.311Z,22.23
2022-10-22T17:27:21.804Z,23.55
2022-10-22T17:29:29.954Z,22.42
2022-10-22T17:31:38.421Z,21.83
2022-10-22T17:33:45.639Z,22.17
2022-10-22T17:35:53.802Z,22.35
2022-10-22T17:38:02.357Z,21.65
2022-10-22T17:40:10.254Z,21.75
2022-10-22T17:42:17.436Z,21.70
2022-10-22T17:44:24.273Z,22.73
2022-10-22T17:46:32.723Z,20.52
2022-10-22T17:48:39.544Z,20.80
2022-10-22T17:50:50.397Z,21.58
2022-10-22T17:53:00.666Z,22.05
2022-10-22T17:55:08.257Z,21.85
2022-10-22T17:57:16.477Z,21.48
2022-10-22T17:59:23.388Z,21.10
2022-10-22T18:01:31.974Z,20.58
2022-10-22T18:03:39.352Z,20.55
2022-10-22T18:05:46.213Z,21.40
2022-10-22T18:07:56.570Z,21.42
2022-10-22T18:10:05.050Z,20.33
2022-10-22T18:12:14.935Z,20.40
2022-10-22T18:14:22.430Z,19.67
2022-10-22T18:16:30.467Z,21.52
2022-10-22T18:18:38.366Z,21.08
2022-10-22T18:20:45.375Z,20.70
2022-10-22T18:22:52.166Z,21.65
2022-10-22T18:24:59.296Z,21.13
2022-10-22T18:27:07.963Z,21.52
2022-10-22T18:29:19.144Z,20.55
2022-10-22T18:31:27.931Z,20.23
2022-10-22T18:33:34.935Z,20.08
2022-10-22T18:35:42.270Z,18.98
2022-10-22T18:37:49.363Z,19.75
2022-10-22T18:39:56.326Z,19.98
2022-10-22T18:42:08.170Z,19.58
2022-10-22T18:44:18.882Z,19.13
2022-10-22T18:46:26.630Z,18.47
2022-10-22T18:48:33.397Z,18.75
2022-10-22T18:50:40.489Z,19.13
2022-10-22T18:52:47.404Z,18.73
2022-10-22T18:54:54.390Z,20.55
2022-10-22T18:57:03.035Z,20.70
2022-10-22T18:59:10.436Z,19.80
2022-10-22T19:01:21.101Z,20.73
2022-10-22T19:03:28.328Z,20.20
2022-10-22T19:05:35.572Z,20.30
2022-10-22T19:07:43.149Z,21.00
2022-10-22T19:09:50.234Z,21.60
2022-10-22T19:11:57.162Z,22.48
2022-10-22T19:14:04.953Z,21.13
2022-10-22T19:16:15.515Z,20.75
2022-10-22T19:18:24.285Z,21.75
2022-10-22T19:20:31.547Z,22.38
2022-10-22T19:22:38.458Z,22.02
2022-10-22T19:24:45.367Z,23.10
2022-10-22T19:26:52.651Z,23.10
2022-10-22T19:29:00.927Z,24.63
2022-10-22T19:31:09.218Z,24.27
2022-10-22T19:33:16.347Z,25.95
2022-10-22T19:35:25.167Z,24.58
2022-10-22T19:37:32.198Z,26.15
2022-10-22T19:39:39.132Z,24.98
2022-10-22T19:41:46.200Z,25.73
2022-10-22T19:43:54.816Z,26.13
2022-10-22T19:46:01.949Z,25.45
2022-10-22T19:48:09.214Z,25.85
2022-10-22T19:50:16.117Z,27.67
2022-10-22T19:52:24.769Z,26.98
2022-10-22T19:54:31.542Z,27.30
2022-10-22T19:56:39.134Z,26.50
2022-10-22T19:58:46.549Z,26.33
2022-10-22T20:00:53.798Z,26.40
2022-10-22T20:03:01.039Z,25.95
2022-10-22T20:05:08.669Z,26.60
2022-10-22T20:07:15.811Z,27.02
2022-10-22T20:09:24.334Z,28.08
2022-10-22T20:11:31.760Z,27.02
2022-10-22T20:15:46.532Z,26.35
2022-10-22T20:17:53.306Z,27.17
2022-10-22T20:20:00.542Z,27.83
2022-10-22T20:22:07.619Z,28.25
2022-10-22T20:24:14.800Z,28.30
2022-10-22T20:26:24.917Z,27.42
2022-10-22T20:28:31.878Z,29.20
2022-10-22T20:30:39.725Z,28.50
2022-10-22T20:32:46.546Z,28.00
2022-10-22T20:34:53.829Z,29.25
2022-10-22T20:37:00.601Z,28.50
2022-10-22T20:39:10.053Z,27.73
2022-10-22T20:41:19.166Z,27.90
2022-10-22T20:43:28.037Z,26.27
2022-10-22T20:45:35.118Z,26.73
2022-10-22T20:47:51.288Z,26.98
2022-10-22T20:49:58.899Z,26.33
2022-10-22T20:52:06.335Z,25.73
2022-10-22T20:54:13.722Z,27.58
2022-10-22T20:56:21.004Z,27.38
2022-10-22T20:58:31.620Z,28.35
2022-10-22T21:00:40.387Z,29.27
2022-10-22T21:02:47.324Z,28.90
2022-10-22T21:04:54.543Z,28.45
2022-10-22T21:07:01.679Z,27.33
2022-10-22T21:09:09.558Z,28.10
2022-10-22T21:11:16.459Z,27.70
2022-10-22T21:13:23.336Z,27.52
2022-10-22T21:15:32.296Z,26.83
2022-10-22T21:17:39.327Z,28.45
2022-10-22T21:19:46.216Z,27.95
2022-10-22T21:21:53.123Z,26.92
2022-10-22T21:23:59.896Z,27.10
2022-10-22T21:26:07.337Z,25.77
2022-10-22T21:28:14.220Z,26.45
2022-10-22T21:30:21.186Z,26.58
2022-10-22T21:32:29.851Z,27.50
2022-10-22T21:34:38.892Z,28.58
2022-10-22T21:38:54.829Z,28.88
2022-10-22T21:41:01.960Z,28.52
2022-10-22T21:43:08.727Z,28.38
2022-10-22T21:45:18.713Z,27.90
2022-10-22T21:47:29.903Z,28.10
2022-10-22T21:49:37.188Z,27.35
2022-10-22T21:51:45.647Z,27.98
2022-10-22T21:56:04.366Z,27.63
2022-10-22T21:58:11.595Z,28.10
2022-10-22T22:00:19.683Z,27.23
2022-10-22T22:02:28.264Z,27.73
2022-10-22T22:04:36.695Z,27.83
2022-10-22T22:06:43.546Z,28.50
2022-10-22T22:08:50.812Z,26.38
2022-10-22T22:11:03.516Z,26.13
2022-10-22T22:13:10.315Z,28.23
2022-10-22T22:15:17.549Z,27.35
2022-10-22T22:17:24.370Z,27.35
2022-10-22T22:19:31.557Z,27.95
2022-10-22T22:21:41.572Z,29.25
2022-10-22T22:23:51.446Z,30.67
2022-10-22T22:26:02.825Z,30.17
2022-10-22T22:28:09.740Z,32.30
2022-10-22T22:30:18.929Z,31.05
2022-10-22T22:32:25.761Z,30.88
2022-10-22T22:34:32.837Z,31.23
2022-10-22T22:36:43.854Z,31.08
2022-10-22T22:38:50.781Z,30.70
2022-10-22T22:40:57.551Z,29.63
2022-10-22T22:43:04.374Z,30.08
2022-10-22T22:45:11.813Z,29.20
2022-10-22T22:47:18.532Z,27.70
2022-10-22T22:49:25.924Z,28.00
2022-10-22T22:51:32.742Z,27.17
2022-10-22T22:53:41.368Z,28.27
2022-10-22T22:55:48.592Z,27.05
2022-10-22T22:57:55.261Z,28.00
2022-10-22T23:00:02.390Z,27.10
2022-10-22T23:02:09.171Z,26.75
2022-10-22T23:04:20.033Z,28.63
2022-10-22T23:06:28.033Z,28.45
2022-10-22T23:08:34.947Z,27.80
2022-10-22T23:10:43.469Z,27.45
2022-10-22T23:12:50.293Z,27.63
2022-10-22T23:14:57.528Z,24.63
2022-10-22T23:17:04.282Z,21.65
2022-10-22T23:19:11.289Z,20.33
2022-10-22T23:21:20.769Z,16.33
2022-10-22T23:23:27.585Z,17.73
2022-10-22T23:25:34.815Z,16.83
2022-10-22T23:27:43.688Z,16.63
2022-10-22T23:29:50.858Z,16.70
2022-10-22T23:31:58.714Z,15.52
2022-10-22T23:34:05.551Z,15.20
2022-10-22T23:36:12.774Z,14.93
2022-10-22T23:38:19.660Z,14.90
2022-10-22T23:40:26.421Z,15.00
2022-10-22T23:42:33.308Z,15.55
2022-10-22T23:44:42.124Z,14.93
2022-10-22T23:46:48.886Z,14.70
2022-10-22T23:48:56.078Z,13.60
2022-10-22T23:51:08.167Z,13.70
2022-10-22T23:53:15.088Z,12.32
2022-10-22T23:55:22.280Z,12.75
2022-10-22T23:57:29.247Z,12.60
2022-10-22T23:59:36.073Z,11.70
